Time;durP1;ratioP1;P1;durP2;ratioP2;P2;SDS_P1;SDS_P2;PMS_P1;PMS_P2;Temp;Humidity;BMP_temperature;BMP_pressure;BME280_temperature;BME280_humidity;BME280_pressure;Samples;Min_cycle;Max_cycle;Signal;HPM_P1;HPM_P2
2022/09/20 06:07:09;;;;;;;1.60;0.50;;;19.50;57.50;;;;;;5496146;23;20236;-85
2022/09/20 06:25:18;;;;;;;1.42;0.50;;;19.60;57.30;;;;;;5381291;23;20707;-83
2022/09/20 06:34:38;;;;;;;5.75;0.82;;;19.60;57.20;;;;;;5055903;28;20208;-82
2022/09/20 06:43:39;;;;;;;1.40;0.70;;;19.60;57.00;;;;;;5064250;28;20209;-83
2022/09/20 06:46:12;;;;;;;2.28;0.70;;;19.60;57.00;;;;;;5013373;28;20280;-82
2022/09/20 06:48:44;;;;;;;4.78;1.35;;;19.60;56.90;;;;;;5006679;28;20201;-81
2022/09/20 06:51:14;;;;;;;25.27;3.13;;;19.60;56.90;;;;;;4988800;28;20182;-82
2022/09/20 06:53:43;;;;;;;16.45;3.13;;;19.60;56.90;;;;;;4988864;28;20182;-82
2022/09/20 06:56:14;;;;;;;22.55;3.33;;;19.50;56.80;;;;;;4972326;28;20178;-82
2022/09/20 06:58:44;;;;;;;23.60;3.60;;;19.60;56.80;;;;;;4974622;28;20193;-81
2022/09/20 07:01:17;;;;;;;13.85;3.15;;;19.50;56.70;;;;;;5004449;28;20210;-82
2022/09/20 07:03:44;;;;;;;19.55;3.33;;;19.60;56.70;;;;;;4987535;28;20672;-81
2022/09/20 07:06:16;;;;;;;13.95;2.67;;;19.60;56.70;;;;;;5003693;28;20287;-82
2022/09/20 07:08:43;;;;;;;12.35;2.53;;;19.60;56.70;;;;;;4989756;28;20186;-81
2022/09/20 07:11:14;;;;;;;15.25;2.67;;;19.50;56.60;;;;;;5005821;28;20185;-82
2022/09/20 07:13:48;;;;;;;9.43;2.22;;;19.60;56.70;;;;;;5040303;28;20165;-81
2022/09/20 07:16:14;;;;;;;11.52;2.17;;;19.60;56.70;;;;;;4993473;28;20178;-81
2022/09/20 07:18:41;;;;;;;13.38;2.28;;;19.60;56.70;;;;;;5058126;28;20159;-81
2022/09/20 07:21:11;;;;;;;12.50;2.38;;;19.60;56.70;;;;;;5023634;28;20643;-82
2022/09/20 07:23:36;;;;;;;8.00;2.17;;;19.50;56.60;;;;;;5039369;28;20189;-82
2022/09/20 07:26:02;;;;;;;11.50;1.80;;;19.60;56.60;;;;;;5024286;28;20241;-81
2022/09/20 07:28:35;;;;;;;11.13;1.95;;;19.60;56.60;;;;;;5040752;28;20193;-81
2022/09/20 07:31:05;;;;;;;8.48;1.77;;;19.60;56.80;;;;;;5004912;28;20178;-81
2022/09/20 07:33:31;;;;;;;9.02;1.50;;;19.50;56.60;;;;;;5005697;28;20221;-81
2022/09/20 07:35:57;;;;;;;7.57;1.40;;;19.60;56.70;;;;;;5021942;28;20162;-81
2022/09/20 07:38:23;;;;;;;8.00;1.48;;;19.60;56.70;;;;;;5023362;28;20188;-81
2022/09/20 07:41:05;;;;;;;7.50;1.42;;;19.60;56.80;;;;;;5040412;28;20155;-81
2022/09/20 07:43:31;;;;;;;6.97;1.40;;;19.60;56.60;;;;;;5040373;28;20186;-80
2022/09/20 07:45:58;;;;;;;9.65;1.60;;;19.60;56.60;;;;;;5038905;28;20165;-82
2022/09/20 07:48:29;;;;;;;6.28;1.08;;;19.60;56.50;;;;;;5023232;28;20162;-81
2022/09/20 07:51:01;;;;;;;3.95;0.90;;;19.60;56.40;;;;;;4990680;28;20596;-81
2022/09/20 07:53:27;;;;;;;3.90;1.33;;;19.60;56.40;;;;;;4992822;28;20178;-81
2022/09/20 07:56:05;;;;;;;4.25;0.98;;;19.60;56.40;;;;;;5041036;28;20610;-81
2022/09/20 07:58:33;;;;;;;5.18;1.33;;;19.60;56.20;;;;;;5008279;28;20178;-82
2022/09/20 08:01:00;;;;;;;6.07;1.20;;;19.60;56.30;;;;;;5024781;28;20162;-82
2022/09/20 08:03:28;;;;;;;3.80;1.10;;;19.60;56.20;;;;;;5041622;28;20196;-82
2022/09/20 08:05:59;;;;;;;6.25;1.30;;;19.60;56.30;;;;;;5040784;28;20159;-82
2022/09/20 08:08:31;;;;;;;5.90;1.52;;;19.60;56.30;;;;;;5025272;28;20225;-83
2022/09/20 08:11:05;;;;;;;5.22;1.50;;;19.60;56.20;;;;;;4976629;28;20178;-82
2022/09/20 08:13:36;;;;;;;5.15;1.63;;;19.60;56.20;;;;;;4991556;28;20276;-82
2022/09/20 08:16:03;;;;;;;9.18;1.55;;;19.60;56.20;;;;;;5024965;28;20166;-82
2022/09/20 08:18:30;;;;;;;6.43;1.02;;;19.60;56.10;;;;;;5025888;28;20498;-81
2022/09/20 08:21:07;;;;;;;6.97;1.10;;;19.60;56.00;;;;;;5024871;28;20162;-82
2022/09/20 08:23:35;;;;;;;4.05;1.00;;;19.60;55.90;;;;;;4994528;28;20266;-83
2022/09/20 08:26:01;;;;;;;7.28;1.33;;;19.60;55.70;;;;;;5009065;28;20173;-82
2022/09/20 08:28:28;;;;;;;5.13;1.00;;;19.60;55.80;;;;;;5025317;28;20166;-82
2022/09/20 08:31:08;;;;;;;7.50;1.23;;;19.60;55.70;;;;;;5045215;28;20213;-82
2022/09/20 08:33:36;;;;;;;7.35;1.35;;;19.60;55.70;;;;;;5030084;28;20170;-81
2022/09/20 08:36:08;;;;;;;3.83;1.05;;;19.60;55.80;;;;;;5029710;28;20196;-81
2022/09/20 08:38:34;;;;;;;5.88;1.08;;;19.70;55.70;;;;;;4997801;28;20189;-81
2022/09/20 08:41:11;;;;;;;2.47;1.13;;;19.60;55.40;;;;;;5065563;28;20174;-81
2022/09/20 08:43:47;;;;;;;6.00;1.00;;;19.60;55.40;;;;;;4999162;28;20224;-81
2022/09/20 08:46:15;;;;;;;4.22;0.93;;;19.70;55.30;;;;;;5045909;28;20224;-81
2022/09/20 08:48:47;;;;;;;8.82;1.38;;;19.60;55.20;;;;;;5047436;28;20174;-81
2022/09/20 08:51:14;;;;;;;5.10;0.82;;;19.60;55.20;;;;;;4996936;28;20178;-81
2022/09/20 08:53:49;;;;;;;4.07;0.82;;;19.70;55.10;;;;;;5044684;28;20173;-81
2022/09/20 08:56:16;;;;;;;2.60;0.80;;;19.70;55.00;;;;;;5025963;28;20193;-80
2022/09/20 08:58:42;;;;;;;3.80;0.70;;;19.60;54.80;;;;;;5041198;28;20154;-81
2022/09/20 09:01:20;;;;;;;6.13;0.80;;;19.70;54.80;;;;;;5025746;28;20182;-81
2022/09/20 09:03:46;;;;;;;1.90;0.80;;;19.70;54.80;;;;;;5011395;28;20290;-82
2022/09/20 09:06:13;;;;;;;4.22;1.30;;;19.70;54.80;;;;;;5043276;28;20161;-81
2022/09/20 09:08:43;;;;;;;4.15;1.00;;;19.70;54.80;;;;;;5043652;28;20155;-82
2022/09/20 09:11:13;;;;;;;2.58;0.88;;;19.70;54.90;;;;;;4992051;28;20245;-81
2022/09/20 09:14:00;;;;;;;4.95;0.77;;;19.70;54.80;;;;;;5060305;28;20154;-83
2022/09/20 09:16:28;;;;;;;1.80;0.73;;;19.70;54.80;;;;;;5027968;28;20237;-82
2022/09/20 09:19:18;;;;;;;4.40;0.80;;;19.70;54.80;;;;;;5026870;28;20198;-82
2022/09/20 09:21:48;;;;;;;3.08;0.75;;;19.70;54.70;;;;;;5021112;28;20600;-81
2022/09/20 09:24:17;;;;;;;3.15;0.80;;;19.80;54.60;;;;;;4998783;28;20297;-82
2022/09/20 09:26:45;;;;;;;2.30;0.80;;;19.70;54.40;;;;;;5045393;28;20170;-82
2022/09/20 09:29:18;;;;;;;3.00;0.65;;;19.80;54.30;;;;;;5043696;28;20167;-82
2022/09/20 09:31:45;;;;;;;1.77;0.70;;;19.70;54.20;;;;;;5057009;28;20182;-82
2022/09/20 09:34:33;;;;;;;2.92;0.68;;;19.70;54.10;;;;;;5057625;28;20150;-82
2022/09/20 09:37:03;;;;;;;2.63;0.63;;;19.80;54.10;;;;;;4991142;28;20263;-81
2022/09/20 09:39:33;;;;;;;1.85;0.70;;;19.80;54.10;;;;;;4990409;28;20188;-82
2022/09/20 09:41:59;;;;;;;2.70;0.68;;;19.80;54.10;;;;;;5041496;28;20172;-83
2022/09/20 09:44:29;;;;;;;0.85;0.57;;;19.80;54.10;;;;;;5042453;28;20271;-82
2022/09/20 09:46:56;;;;;;;2.88;0.95;;;19.80;54.10;;;;;;5059556;28;20157;-83
2022/09/20 09:49:27;;;;;;;2.90;1.00;;;19.80;54.10;;;;;;5056841;28;20644;-82
2022/09/20 09:52:16;;;;;;;1.35;0.80;;;19.80;54.00;;;;;;5058493;28;20169;-83
2022/09/20 09:54:47;;;;;;;1.80;0.60;;;19.80;53.90;;;;;;5060416;28;20162;-82
2022/09/20 09:57:54;;;;;;;2.88;0.80;;;19.80;53.90;;;;;;5061095;28;20166;-82
2022/09/20 10:00:26;;;;;;;1.98;0.60;;;19.80;53.90;;;;;;5050091;28;20520;-83
2022/09/20 10:03:27;;;;;;;1.88;0.80;;;19.80;53.90;;;;;;4993956;28;20542;-83
2022/09/20 10:06:06;;;;;;;2.15;0.80;;;19.80;53.90;;;;;;5060396;28;20178;-82
2022/09/20 10:08:57;;;;;;;2.33;0.75;;;19.80;53.80;;;;;;5059229;28;20558;-82
2022/09/20 10:11:51;;;;;;;1.75;0.70;;;19.80;53.70;;;;;;5060063;28;20154;-82
2022/09/20 10:14:35;;;;;;;1.00;0.55;;;19.80;53.50;;;;;;5059203;28;20162;-82
2022/09/20 10:17:27;;;;;;;0.75;0.52;;;19.80;53.50;;;;;;5057776;28;20150;-81
2022/09/20 10:20:08;;;;;;;1.15;0.73;;;19.80;53.40;;;;;;5058783;28;20158;-82
2022/09/20 10:22:53;;;;;;;2.65;0.70;;;19.80;53.50;;;;;;5058053;28;20158;-83
2022/09/20 10:25:44;;;;;;;1.42;0.60;;;19.80;53.40;;;;;;5040219;28;20236;-82
2022/09/20 10:28:33;;;;;;;3.03;0.50;;;19.80;53.30;;;;;;5044625;28;20154;-82
2022/09/20 10:31:16;;;;;;;1.73;0.55;;;19.80;53.20;;;;;;4992712;28;20182;-82
2022/09/20 10:34:18;;;;;;;2.70;0.70;;;19.80;53.20;;;;;;5052907;28;20158;-82
2022/09/20 10:36:54;;;;;;;1.25;0.63;;;19.80;53.40;;;;;;5053589;28;20165;-82
2022/09/20 10:39:40;;;;;;;3.25;0.60;;;19.80;53.30;;;;;;5053771;28;20153;-82
2022/09/20 10:45:18;;;;;;;1.98;0.50;;;19.80;53.30;;;;;;5055176;28;20166;-83
2022/09/20 10:48:01;;;;;;;1.85;0.70;;;19.80;53.30;;;;;;5058484;28;20185;-83
2022/09/20 10:50:52;;;;;;;2.15;0.60;;;19.80;53.20;;;;;;5045930;28;20169;-84
2022/09/20 10:53:26;;;;;;;0.65;0.40;;;19.80;53.20;;;;;;5046235;28;20276;-86
2022/09/20 10:56:24;;;;;;;2.15;0.57;;;19.80;53.20;;;;;;5043759;28;20173;-84
2022/09/20 10:59:21;;;;;;;0.47;0.40;;;19.80;53.30;;;;;;5043065;28;20583;-84
2022/09/20 11:01:58;;;;;;;3.25;0.68;;;19.80;53.20;;;;;;5030576;28;20288;-85
2022/09/20 11:04:57;;;;;;;2.00;0.50;;;19.80;53.10;;;;;;5020992;28;20656;-84
2022/09/20 11:07:38;;;;;;;0.65;0.50;;;19.80;53.00;;;;;;5056429;28;20190;-83
2022/09/20 11:10:28;;;;;;;0.95;0.50;;;19.80;53.00;;;;;;5038399;28;20587;-84
2022/09/20 11:13:19;;;;;;;1.20;0.60;;;19.80;53.00;;;;;;5061873;28;20197;-85
2022/09/20 11:15:51;;;;;;;2.45;0.60;;;19.80;53.00;;;;;;5063766;28;20223;-85
2022/09/20 11:18:22;;;;;;;2.35;0.60;;;19.80;53.00;;;;;;5038170;28;20170;-83
2022/09/20 11:21:07;;;;;;;0.63;0.50;;;19.80;52.90;;;;;;5038097;28;20209;-84
2022/09/20 11:23:50;;;;;;;1.77;0.60;;;19.80;52.90;;;;;;5023836;28;20205;-84
2022/09/20 11:26:35;;;;;;;0.50;0.50;;;19.80;53.00;;;;;;5019208;28;20204;-84
2022/09/20 11:29:17;;;;;;;1.38;0.63;;;19.80;53.10;;;;;;4998840;28;20570;-84
2022/09/20 11:31:47;;;;;;;0.55;0.55;;;19.80;53.00;;;;;;4953624;28;20191;-83
2022/09/20 11:34:26;;;;;;;0.73;0.50;;;19.80;53.10;;;;;;4968706;28;20247;-83
2022/09/20 11:37:01;;;;;;;0.73;0.50;;;19.80;53.10;;;;;;4985976;28;20194;-84
2022/09/20 11:39:34;;;;;;;0.70;0.50;;;19.80;53.00;;;;;;4969306;28;20187;-84
2022/09/20 11:42:00;;;;;;;0.95;0.43;;;19.80;53.10;;;;;;4985527;28;20160;-84
2022/09/20 11:44:26;;;;;;;1.20;0.60;;;19.80;53.10;;;;;;4969793;28;20646;-84
2022/09/20 11:47:02;;;;;;;0.68;0.50;;;19.80;53.10;;;;;;4985851;28;20168;-83
2022/09/20 11:49:45;;;;;;;1.00;0.90;;;19.80;53.70;;;;;;4970023;28;20197;-83
2022/09/20 11:52:36;;;;;;;1.20;0.40;;;19.80;53.00;;;;;;4967312;28;20682;-83
2022/09/20 11:55:27;;;;;;;0.52;0.50;;;19.80;52.90;;;;;;4969204;28;20193;-83
2022/09/20 11:58:09;;;;;;;0.75;0.40;;;19.80;53.00;;;;;;4987854;28;20171;-83
2022/09/20 12:00:37;;;;;;;0.60;0.50;;;19.80;52.90;;;;;;5016518;28;20182;-83
2022/09/20 12:03:28;;;;;;;0.50;0.30;;;19.80;52.90;;;;;;5030778;28;20158;-82
2022/09/20 12:06:04;;;;;;;1.00;0.50;;;19.70;52.80;;;;;;5024603;28;20184;-83
2022/09/20 12:08:42;;;;;;;0.80;0.40;;;19.80;52.80;;;;;;5001859;28;20189;-83
2022/09/20 12:11:15;;;;;;;0.82;0.50;;;19.70;52.70;;;;;;4985348;28;20227;-82
2022/09/20 12:13:50;;;;;;;0.70;0.40;;;19.80;52.80;;;;;;5002065;28;20212;-83
2022/09/20 12:16:40;;;;;;;0.30;0.30;;;19.80;52.80;;;;;;5050612;28;20166;-83
2022/09/20 12:19:33;;;;;;;0.82;0.55;;;19.80;52.80;;;;;;4999784;28;20189;-83
2022/09/20 12:22:17;;;;;;;1.13;0.60;;;19.80;52.80;;;;;;4994746;28;20178;-83
2022/09/20 12:24:43;;;;;;;1.23;0.45;;;19.80;52.80;;;;;;5039081;28;20676;-84
2022/09/20 12:27:30;;;;;;;0.60;0.40;;;19.80;52.80;;;;;;5034593;28;20169;-83
2022/09/20 12:30:19;;;;;;;0.32;0.30;;;19.80;52.80;;;;;;5052287;28;20169;-84
2022/09/20 12:32:52;;;;;;;0.38;0.38;;;19.80;52.80;;;;;;5049907;28;20162;-83
2022/09/20 12:35:50;;;;;;;0.35;0.35;;;19.80;52.90;;;;;;5016656;28;20265;-83
2022/09/20 12:38:30;;;;;;;0.68;0.50;;;19.80;52.90;;;;;;5067530;28;20162;-83
2022/09/20 12:41:09;;;;;;;0.77;0.60;;;19.80;52.80;;;;;;5001318;28;20571;-83
2022/09/20 12:43:58;;;;;;;0.50;0.50;;;19.80;52.90;;;;;;5001458;28;20629;-83
2022/09/20 12:46:49;;;;;;;0.40;0.40;;;19.80;52.80;;;;;;5017818;28;20273;-83
2022/09/20 12:52:57;;;;;;;0.90;0.40;;;19.80;52.50;;;;;;5066846;28;20178;-83
2022/09/20 12:55:39;;;;;;;0.70;0.40;;;19.90;52.60;;;;;;5022825;28;20205;-82
2022/09/20 12:58:21;;;;;;;0.30;0.30;;;19.80;52.50;;;;;;5000584;28;20186;-83
2022/09/20 13:01:27;;;;;;;0.65;0.40;;;19.80;52.50;;;;;;5031803;28;20186;-83
2022/09/20 13:03:56;;;;;;;1.10;0.52;;;19.80;52.50;;;;;;5039572;28;20288;-83
2022/09/20 13:06:24;;;;;;;0.77;0.50;;;19.80;52.40;;;;;;5032080;28;20166;-83
2022/09/20 13:08:59;;;;;;;0.47;0.47;;;19.80;52.30;;;;;;5047397;28;20214;-82
2022/09/20 13:11:53;;;;;;;0.85;0.47;;;19.80;52.30;;;;;;5030801;28;20184;-82
2022/09/20 13:14:30;;;;;;;0.60;0.50;;;19.80;52.20;;;;;;5014466;28;20641;-82
2022/09/20 13:17:26;;;;;;;0.55;0.55;;;19.70;52.00;;;;;;5031045;28;20174;-82
2022/09/20 13:19:56;;;;;;;0.88;0.50;;;19.80;51.90;;;;;;5007683;28;20201;-82
2022/09/20 13:22:31;;;;;;;0.65;0.52;;;19.80;52.30;;;;;;5031173;28;20224;-82
2022/09/20 13:24:59;;;;;;;0.57;0.50;;;19.80;51.60;;;;;;5031288;28;20240;-83
2022/09/20 13:27:33;;;;;;;0.57;0.40;;;19.80;51.30;;;;;;5030637;28;20218;-82
2022/09/20 13:30:23;;;;;;;0.40;0.40;;;19.80;51.20;;;;;;5012700;28;20201;-83
2022/09/20 13:32:52;;;;;;;0.90;0.50;;;19.80;50.80;;;;;;5062454;28;20170;-84
2022/09/20 13:35:23;;;;;;;0.30;0.30;;;19.80;50.80;;;;;;5028905;28;20672;-83
2022/09/20 13:37:59;;;;;;;2.05;0.55;;;19.80;50.80;;;;;;4995908;28;20202;-83
2022/09/20 13:40:41;;;;;;;0.50;0.50;;;19.80;50.70;;;;;;5029050;28;20253;-83
2022/09/20 13:43:39;;;;;;;0.55;0.43;;;19.80;50.70;;;;;;5013551;28;20204;-83
2022/09/20 13:46:08;;;;;;;0.50;0.50;;;19.80;50.60;;;;;;4974865;28;20190;-83
2022/09/20 13:48:39;;;;;;;0.30;0.30;;;19.80;50.60;;;;;;5005296;28;20665;-83
2022/09/20 13:51:27;;;;;;;0.40;0.40;;;19.80;50.50;;;;;;4957688;28;20566;-84
2022/09/20 13:54:16;;;;;;;2.05;0.52;;;19.80;50.50;;;;;;4973034;28;20187;-82
2022/09/20 13:56:44;;;;;;;1.10;0.50;;;19.80;50.40;;;;;;5022007;28;20639;-83
2022/09/20 13:59:14;;;;;;;0.38;0.38;;;19.80;50.40;;;;;;5005602;28;20179;-80
2022/09/20 14:01:43;;;;;;;0.50;0.50;;;19.80;50.30;;;;;;5024708;28;20185;-79
2022/09/20 14:04:21;;;;;;;1.25;0.40;;;19.80;50.30;;;;;;4991977;28;20219;-80
2022/09/20 14:06:55;;;;;;;0.70;0.50;;;19.80;50.40;;;;;;5007826;28;20182;-80
2022/09/20 14:09:30;;;;;;;0.40;0.40;;;19.80;50.40;;;;;;5008683;28;20191;-80
2022/09/20 14:11:57;;;;;;;0.60;0.60;;;19.80;50.40;;;;;;4992276;28;20175;-80
2022/09/20 14:14:27;;;;;;;0.40;0.40;;;19.80;50.40;;;;;;4992273;28;20207;-80
2022/09/20 14:16:55;;;;;;;0.50;0.50;;;19.80;50.40;;;;;;5013873;28;20186;-80
2022/09/20 14:19:31;;;;;;;0.75;0.45;;;19.80;50.40;;;;;;5045736;28;20182;-80
2022/09/20 14:22:01;;;;;;;0.40;0.40;;;19.80;50.40;;;;;;5010725;28;20190;-80
2022/09/20 14:24:36;;;;;;;0.60;0.50;;;19.80;50.50;;;;;;5044751;28;20230;-80
2022/09/20 14:27:18;;;;;;;0.77;0.30;;;19.80;50.40;;;;;;5044705;28;20185;-80
2022/09/20 14:29:50;;;;;;;1.02;0.45;;;19.80;50.40;;;;;;5056887;28;20226;-80
2022/09/20 14:32:30;;;;;;;0.73;0.50;;;19.80;50.40;;;;;;5043228;28;20293;-80
2022/09/20 14:35:11;;;;;;;0.57;0.40;;;19.80;50.30;;;;;;5061765;28;20538;-81
2022/09/20 14:37:52;;;;;;;0.38;0.38;;;19.80;50.20;;;;;;5026906;28;20244;-80
2022/09/20 14:40:30;;;;;;;0.30;0.30;;;19.80;50.30;;;;;;5014620;28;20205;-80
2022/09/20 14:43:02;;;;;;;0.98;0.50;;;19.80;50.40;;;;;;5013720;28;20182;-80
2022/09/20 14:45:38;;;;;;;0.60;0.40;;;19.80;50.30;;;;;;5047201;28;20151;-80
2022/09/20 14:48:32;;;;;;;0.38;0.38;;;19.90;50.20;;;;;;4997619;28;20186;-81
2022/09/20 14:51:20;;;;;;;0.30;0.30;;;19.80;50.10;;;;;;5015579;28;20155;-80
2022/09/20 14:53:50;;;;;;;0.60;0.47;;;19.90;50.30;;;;;;5029444;28;20270;-80
2022/09/20 14:56:24;;;;;;;0.30;0.30;;;19.90;50.10;;;;;;5028389;28;20245;-80
2022/09/20 14:59:22;;;;;;;0.75;0.60;;;19.90;50.10;;;;;;5012999;28;20193;-79
2022/09/20 15:02:02;;;;;;;1.98;0.50;;;19.80;50.10;;;;;;5028859;28;20211;-80
2022/09/20 15:04:34;;;;;;;0.40;0.40;;;19.80;50.10;;;;;;4995767;28;20665;-79
2022/09/20 15:07:07;;;;;;;0.47;0.40;;;19.80;50.10;;;;;;5011942;28;20590;-80
2022/09/20 15:09:40;;;;;;;0.68;0.40;;;19.80;49.90;;;;;;5010786;28;20673;-80
2022/09/20 15:12:17;;;;;;;0.43;0.43;;;19.80;50.50;;;;;;5012267;28;20186;-80
2022/09/20 15:14:48;;;;;;;2.35;0.68;;;19.80;49.80;;;;;;5008518;28;20185;-80
2022/09/20 15:17:17;;;;;;;0.30;0.30;;;19.80;49.30;;;;;;5003424;28;20537;-79
2022/09/20 15:19:48;;;;;;;0.85;0.40;;;19.80;49.40;;;;;;5003923;28;20526;-80
2022/09/20 15:22:15;;;;;;;0.30;0.30;;;19.80;49.40;;;;;;5024217;28;20178;-79
2022/09/20 15:24:46;;;;;;;0.77;0.40;;;19.80;49.70;;;;;;5009920;28;20234;-79
2022/09/20 15:27:14;;;;;;;0.98;0.50;;;19.90;50.00;;;;;;5011787;28;20167;-77
2022/09/20 15:29:40;;;;;;;0.63;0.50;;;19.90;49.60;;;;;;4994227;28;20555;-80
2022/09/20 15:32:12;;;;;;;0.30;0.30;;;19.90;49.50;;;;;;5010840;28;20174;-79
2022/09/20 15:34:40;;;;;;;1.15;0.30;;;19.90;49.40;;;;;;5009955;28;20188;-79
2022/09/20 15:37:08;;;;;;;0.75;0.40;;;19.90;49.30;;;;;;4994080;28;20194;-80
2022/09/20 15:39:34;;;;;;;0.40;0.40;;;19.90;49.20;;;;;;5027888;28;20551;-80
2022/09/20 15:42:02;;;;;;;0.40;0.30;;;19.90;49.30;;;;;;5015333;28;20163;-78
2022/09/20 15:44:31;;;;;;;1.10;0.40;;;19.80;49.60;;;;;;4997712;28;20214;-80
2022/09/20 15:46:59;;;;;;;0.70;0.40;;;19.90;49.70;;;;;;4998939;28;20645;-79
2022/09/20 15:49:30;;;;;;;0.90;0.30;;;19.90;49.50;;;;;;5014238;28;20183;-80
2022/09/20 15:51:57;;;;;;;1.70;0.40;;;19.90;49.10;;;;;;5013845;28;20654;-80
2022/09/20 15:54:25;;;;;;;0.40;0.40;;;19.90;48.90;;;;;;4996926;28;20221;-79
2022/09/20 15:56:52;;;;;;;1.20;0.40;;;19.90;48.80;;;;;;5015300;28;20190;-80
2022/09/20 15:59:22;;;;;;;4.20;0.40;;;19.90;48.80;;;;;;4999543;28;20175;-81
2022/09/20 16:01:55;;;;;;;2.50;0.40;;;19.80;48.80;;;;;;4999772;28;20194;-80
2022/09/20 16:04:22;;;;;;;2.40;0.50;;;19.90;48.80;;;;;;5014744;28;20210;-80
2022/09/20 16:06:55;;;;;;;2.63;0.40;;;19.90;48.80;;;;;;5016426;28;20182;-80
2022/09/20 16:09:23;;;;;;;2.05;0.43;;;19.80;48.60;;;;;;5000116;28;20285;-81
2022/09/20 16:11:57;;;;;;;1.60;0.38;;;19.90;49.00;;;;;;5018299;28;20181;-80
2022/09/20 16:14:24;;;;;;;2.38;0.40;;;19.90;48.70;;;;;;5033409;28;20194;-80
2022/09/20 16:16:55;;;;;;;3.97;0.50;;;19.90;48.70;;;;;;5014753;28;20206;-80
2022/09/20 16:19:24;;;;;;;0.85;0.40;;;19.80;48.50;;;;;;5014519;28;20224;-80
2022/09/20 16:21:55;;;;;;;0.90;0.40;;;19.90;48.50;;;;;;4992343;28;20194;-82
2022/09/20 16:24:25;;;;;;;0.90;0.30;;;19.90;48.50;;;;;;4976262;28;20346;-80
2022/09/20 16:26:52;;;;;;;0.40;0.40;;;19.90;48.50;;;;;;4992945;28;20283;-80
2022/09/20 16:29:28;;;;;;;1.55;0.40;;;19.90;48.50;;;;;;5007141;28;20203;-80
2022/09/20 16:32:50;;;;;;;2.88;0.60;;;19.90;48.50;;;;;;4991882;28;20190;-82
2022/09/20 16:35:09;;;;;;;2.17;0.40;;;19.90;48.80;;;;;;4971254;28;20188;-81
2022/09/20 16:37:42;;;;;;;2.63;0.30;;;19.90;48.80;;;;;;4920872;29;20186;-80
2022/09/20 16:40:15;;;;;;;0.50;0.38;;;19.90;48.50;;;;;;4904732;29;20190;-81
2022/09/20 16:42:49;;;;;;;0.75;0.40;;;19.90;48.30;;;;;;4902714;29;20193;-83
2022/09/20 16:45:16;;;;;;;1.08;0.40;;;19.90;48.30;;;;;;4904309;29;20323;-82
2022/09/20 16:47:46;;;;;;;1.67;0.50;;;19.90;48.50;;;;;;4916681;29;20273;-81
2022/09/20 16:50:12;;;;;;;0.43;0.30;;;19.90;48.30;;;;;;4901405;29;20225;-81
2022/09/20 16:52:43;;;;;;;2.00;0.68;;;19.90;48.30;;;;;;4935542;28;20181;-81
2022/09/20 16:55:13;;;;;;;2.30;0.55;;;19.90;48.30;;;;;;4954367;28;20181;-80
2022/09/20 16:57:48;;;;;;;3.00;0.50;;;19.90;48.50;;;;;;4970276;28;20219;-80
2022/09/20 17:00:20;;;;;;;3.13;0.40;;;19.90;48.60;;;;;;4937891;28;20255;-80
2022/09/20 17:02:52;;;;;;;0.63;0.40;;;19.90;48.50;;;;;;4947867;28;20216;-79
2022/09/20 17:05:22;;;;;;;0.63;0.40;;;19.90;48.40;;;;;;4969443;28;20217;-80
2022/09/20 17:07:53;;;;;;;0.77;0.38;;;19.90;48.30;;;;;;4938669;28;20622;-79
2022/09/20 17:10:23;;;;;;;0.80;0.38;;;19.90;48.30;;;;;;4953475;28;20177;-79
2022/09/20 17:12:56;;;;;;;0.38;0.30;;;19.90;48.60;;;;;;4953724;28;20192;-79
2022/09/20 17:15:29;;;;;;;1.38;0.30;;;19.90;48.40;;;;;;5008902;28;20191;-80
2022/09/20 17:18:04;;;;;;;0.60;0.30;;;20.00;48.60;;;;;;5012158;28;20179;-81
2022/09/20 17:20:49;;;;;;;4.07;0.50;;;19.80;48.40;;;;;;4996142;28;20225;-80
2022/09/20 17:23:22;;;;;;;1.02;0.22;;;19.90;48.50;;;;;;4984774;28;20174;-80
2022/09/20 17:26:00;;;;;;;0.43;0.30;;;19.90;48.60;;;;;;5010590;28;20249;-80
2022/09/20 17:28:36;;;;;;;4.10;0.40;;;19.90;48.50;;;;;;5045712;28;20161;-80
2022/09/20 17:31:03;;;;;;;0.50;0.32;;;19.90;48.50;;;;;;4996022;28;20183;-80
2022/09/20 17:33:29;;;;;;;1.48;0.50;;;19.90;48.50;;;;;;5029961;28;20181;-80
2022/09/20 17:35:59;;;;;;;4.53;0.40;;;19.90;48.50;;;;;;5030429;28;20573;-80
2022/09/20 17:38:30;;;;;;;1.15;0.50;;;19.90;48.60;;;;;;5013405;28;20175;-80
2022/09/20 17:41:00;;;;;;;2.00;0.40;;;19.90;48.50;;;;;;4996255;28;20190;-81
2022/09/20 17:43:30;;;;;;;0.75;0.50;;;19.90;48.60;;;;;;5027588;28;20229;-80
2022/09/20 17:46:16;;;;;;;2.22;0.43;;;19.90;48.60;;;;;;5043389;28;20221;-80
2022/09/20 17:48:50;;;;;;;1.92;0.50;;;19.90;48.80;;;;;;5014232;28;20179;-80
2022/09/20 17:51:23;;;;;;;2.53;0.32;;;19.90;48.60;;;;;;5012478;28;20310;-80
2022/09/20 17:53:52;;;;;;;0.60;0.40;;;19.90;48.70;;;;;;5013464;28;20187;-80
2022/09/20 17:56:27;;;;;;;0.43;0.43;;;19.90;48.60;;;;;;5012093;28;20178;-79
2022/09/20 17:58:56;;;;;;;1.90;0.40;;;19.90;48.50;;;;;;5014203;28;20592;-80
2022/09/20 18:01:27;;;;;;;1.92;0.40;;;19.90;48.50;;;;;;4996282;28;20166;-81
2022/09/20 18:04:02;;;;;;;1.13;0.50;;;19.80;48.50;;;;;;4996413;28;20210;-81
2022/09/20 18:06:29;;;;;;;5.05;0.60;;;19.90;48.80;;;;;;5013951;28;20182;-79
2022/09/20 18:09:01;;;;;;;1.45;0.40;;;19.80;48.50;;;;;;5029514;28;20571;-80
2022/09/20 18:11:38;;;;;;;0.60;0.60;;;19.90;48.60;;;;;;5000874;28;20182;-82
2022/09/20 18:14:05;;;;;;;1.55;0.85;;;19.90;48.40;;;;;;5019075;28;20185;-81
2022/09/20 18:16:33;;;;;;;1.10;0.90;;;19.80;48.40;;;;;;5015033;28;20167;-80
2022/09/20 18:19:00;;;;;;;3.25;1.20;;;19.90;48.40;;;;;;4997352;28;20270;-80
2022/09/20 18:21:32;;;;;;;1.95;1.50;;;19.80;48.50;;;;;;5029647;28;20246;-80
2022/09/20 18:23:59;;;;;;;2.05;1.50;;;19.80;48.50;;;;;;5011497;28;20234;-81
2022/09/20 18:26:29;;;;;;;1.83;1.55;;;19.80;48.60;;;;;;5045599;28;20222;-80
2022/09/20 18:29:00;;;;;;;3.00;1.48;;;19.80;48.60;;;;;;5013001;28;20234;-81
2022/09/20 18:31:30;;;;;;;2.75;1.40;;;19.80;48.50;;;;;;5015789;28;20332;-81
2022/09/20 18:33:56;;;;;;;1.63;1.20;;;19.80;48.50;;;;;;5013591;28;20178;-81
2022/09/20 18:36:24;;;;;;;2.70;1.30;;;19.80;48.80;;;;;;5012537;28;20194;-81
2022/09/20 18:38:54;;;;;;;1.33;1.20;;;19.90;48.90;;;;;;5044915;28;20178;-81
2022/09/20 18:41:27;;;;;;;4.60;1.35;;;19.90;48.50;;;;;;5009918;28;20186;-82
2022/09/20 18:44:02;;;;;;;1.30;1.08;;;19.80;48.40;;;;;;5024934;28;20217;-81
2022/09/20 18:46:36;;;;;;;1.17;1.05;;;19.80;48.30;;;;;;4993988;28;20186;-81
2022/09/20 18:49:08;;;;;;;2.13;1.30;;;19.80;48.20;;;;;;5043817;28;20205;-81
2022/09/20 18:51:34;;;;;;;1.40;1.27;;;19.80;48.20;;;;;;5027726;28;20169;-81
2022/09/20 18:54:00;;;;;;;2.35;1.33;;;19.80;48.10;;;;;;5043955;28;20171;-81
2022/09/20 18:56:31;;;;;;;1.85;1.27;;;19.80;48.10;;;;;;5007195;28;20175;-81
2022/09/20 18:59:00;;;;;;;1.40;1.30;;;19.80;48.00;;;;;;5007936;28;20183;-81
2022/09/20 19:01:55;;;;;;;1.45;1.20;;;19.80;48.10;;;;;;4990009;28;20175;-81
2022/09/20 19:04:48;;;;;;;1.83;1.20;;;19.80;48.10;;;;;;4995819;28;20222;-81
2022/09/20 19:07:39;;;;;;;1.40;1.25;;;19.80;48.00;;;;;;5009437;28;20194;-81
2022/09/20 19:10:21;;;;;;;1.92;1.45;;;19.80;47.90;;;;;;5007290;28;20191;-80
2022/09/20 19:13:07;;;;;;;1.70;1.30;;;19.80;47.90;;;;;;4961009;28;20217;-80
2022/09/20 19:15:53;;;;;;;2.15;1.30;;;19.70;47.80;;;;;;4989426;28;20173;-80
2022/09/20 19:18:59;;;;;;;1.17;1.10;;;19.80;47.80;;;;;;4960080;28;20228;-81
2022/09/20 19:21:53;;;;;;;1.35;1.10;;;19.80;47.90;;;;;;4999186;28;20190;-80
2022/09/20 19:25:00;;;;;;;1.20;1.10;;;19.70;47.80;;;;;;5006388;28;20191;-81
2022/09/20 19:27:40;;;;;;;1.08;0.98;;;19.70;47.80;;;;;;5010564;28;20213;-80
2022/09/20 19:30:12;;;;;;;1.10;1.00;;;19.70;47.70;;;;;;5010648;28;20210;-81
2022/09/20 19:32:39;;;;;;;1.30;1.20;;;19.80;47.80;;;;;;4992989;28;20202;-80
2022/09/20 19:35:19;;;;;;;1.38;1.27;;;19.70;47.70;;;;;;5010883;28;20169;-81
2022/09/20 19:37:57;;;;;;;1.00;0.90;;;19.70;47.70;;;;;;4992235;28;20616;-82
2022/09/20 19:40:34;;;;;;;1.10;1.00;;;19.70;47.70;;;;;;5006139;28;20552;-82
2022/09/20 19:43:22;;;;;;;1.40;1.15;;;19.70;47.70;;;;;;4989102;28;20182;-82
2022/09/20 19:46:05;;;;;;;1.13;1.02;;;19.60;47.60;;;;;;5022947;28;20178;-82
2022/09/20 19:48:41;;;;;;;1.35;1.00;;;19.70;47.70;;;;;;5040141;28;20167;-82
2022/09/20 19:51:10;;;;;;;1.67;1.25;;;19.70;47.70;;;;;;4972804;28;20192;-81
2022/09/20 19:53:40;;;;;;;1.15;1.05;;;19.70;47.60;;;;;;5021907;28;20159;-83
2022/09/20 19:56:27;;;;;;;1.40;1.10;;;19.70;47.60;;;;;;4972839;28;20179;-82
2022/09/20 19:58:54;;;;;;;1.27;1.17;;;19.70;47.60;;;;;;4989462;28;20537;-82
2022/09/20 20:01:22;;;;;;;1.20;1.10;;;19.60;47.60;;;;;;5005893;28;20198;-82
2022/09/20 20:03:50;;;;;;;1.23;1.13;;;19.70;47.60;;;;;;5022624;28;20601;-81
2022/09/20 20:06:46;;;;;;;1.65;1.10;;;19.60;47.60;;;;;;5023114;28;20171;-81
2022/09/20 20:09:50;;;;;;;1.60;1.38;;;19.60;47.60;;;;;;5041124;28;20201;-82